Time;durP1;ratioP1;P1;durP2;ratioP2;P2;SDS_P1;SDS_P2;PMS_P1;PMS_P2;Temp;Humidity;BMP_temperature;BMP_pressure;BME280_temperature;BME280_humidity;BME280_pressure;Samples;Min_cycle;Max_cycle;Signal;HPM_P1;HPM_P2
2022/04/05 00:01:34;;;;;;;14.07;10.83;;;;;;;2.17;100.00;95199.09;10412742;28;20277;-56
2022/04/05 00:06:35;;;;;;;15.53;11.80;;;;;;;2.09;100.00;95210.13;10412734;28;20799;-56
2022/04/05 00:11:35;;;;;;;13.67;10.70;;;;;;;2.09;100.00;95204.16;10412106;28;20666;-57
2022/04/05 00:16:35;;;;;;;12.70;10.13;;;;;;;1.98;100.00;95200.00;10411861;28;20731;-53
2022/04/05 00:21:36;;;;;;;12.77;9.53;;;;;;;1.96;100.00;95204.47;10411374;28;20224;-58
2022/04/05 00:26:36;;;;;;;15.83;12.80;;;;;;;1.87;100.00;95213.88;10411793;28;20699;-58
2022/04/05 00:31:37;;;;;;;14.90;11.10;;;;;;;1.84;100.00;95203.84;10392201;28;20683;-58
2022/04/05 00:36:37;;;;;;;17.10;14.93;;;;;;;1.73;100.00;95203.97;10407654;28;20223;-53
2022/04/05 00:41:38;;;;;;;12.83;9.33;;;;;;;1.76;100.00;95191.63;10411190;28;20239;-57
2022/04/05 00:46:38;;;;;;;16.63;10.23;;;;;;;1.68;100.00;95193.28;10409110;28;20659;-55
2022/04/05 00:51:39;;;;;;;18.03;13.13;;;;;;;1.62;100.00;95197.22;10410836;28;20194;-58
2022/04/05 00:56:40;;;;;;;16.80;12.97;;;;;;;1.67;100.00;95194.22;10411129;28;20235;-51
2022/04/05 01:01:40;;;;;;;19.50;14.40;;;;;;;1.62;100.00;95194.63;10409763;28;20226;-51
2022/04/05 01:06:44;;;;;;;10.73;8.10;;;;;;;1.66;100.00;95183.09;10392974;28;20701;-51
2022/04/05 01:11:45;;;;;;;18.57;13.87;;;;;;;1.59;100.00;95182.84;10410544;28;20189;-55
2022/04/05 01:16:45;;;;;;;15.03;11.60;;;;;;;1.62;100.00;95175.75;10393058;28;20738;-50
2022/04/05 01:21:45;;;;;;;17.03;14.83;;;;;;;1.61;100.00;95190.44;10410010;28;20223;-51
2022/04/05 01:26:48;;;;;;;12.17;9.13;;;;;;;1.62;100.00;95186.88;10410141;28;20236;-55
2022/04/05 01:31:52;;;;;;;16.90;12.97;;;;;;;1.66;100.00;95172.75;10417463;28;20610;-59
2022/04/05 01:36:54;;;;;;;13.27;9.10;;;;;;;1.63;100.00;95183.38;10418306;28;20597;-58
2022/04/05 01:42:00;;;;;;;14.43;10.90;;;;;;;1.58;100.00;95170.88;10418165;28;20224;-58
2022/04/05 01:47:09;;;;;;;10.33;7.57;;;;;;;1.59;100.00;95176.84;10418284;28;20220;-53
2022/04/05 01:52:10;;;;;;;15.30;13.70;;;;;;;1.60;100.00;95173.31;10417851;28;20708;-59
2022/04/05 01:57:11;;;;;;;8.97;6.97;;;;;;;1.57;100.00;95181.34;10417469;28;20263;-57
2022/04/05 02:02:12;;;;;;;11.47;8.73;;;;;;;1.54;100.00;95179.84;10417364;28;20246;-59
2022/04/05 02:07:14;;;;;;;15.73;13.80;;;;;;;1.50;100.00;95175.09;10417320;28;20693;-56
2022/04/05 02:12:18;;;;;;;14.30;11.63;;;;;;;1.42;100.00;95181.78;10417254;28;20187;-59
2022/04/05 02:17:33;;;;;;;14.43;10.80;;;;;;;1.43;100.00;95177.44;10399228;28;20205;-58
2022/04/05 02:22:37;;;;;;;9.87;8.23;;;;;;;1.45;100.00;95174.72;10416380;28;20188;-59
2022/04/05 02:27:47;;;;;;;14.83;13.33;;;;;;;1.40;100.00;95169.97;10398689;28;20765;-56
2022/04/05 02:32:52;;;;;;;13.03;11.20;;;;;;;1.33;100.00;95174.88;10416309;28;20570;-54
2022/04/05 02:37:53;;;;;;;12.67;9.30;;;;;;;1.37;100.00;95165.88;10397730;28;20212;-58
2022/04/05 02:42:56;;;;;;;13.37;9.57;;;;;;;1.34;100.00;95173.09;10397416;28;20195;-56
2022/04/05 02:47:57;;;;;;;10.10;8.53;;;;;;;1.30;100.00;95169.16;10397412;28;20210;-55
2022/04/05 02:53:00;;;;;;;12.23;10.77;;;;;;;1.25;100.00;95169.56;10397532;28;20189;-54
2022/04/05 02:58:02;;;;;;;7.33;5.50;;;;;;;1.29;100.00;95170.94;10397269;28;20236;-57
2022/04/05 03:03:07;;;;;;;12.03;8.77;;;;;;;1.30;100.00;95166.56;10385325;28;20275;-59
2022/04/05 03:08:08;;;;;;;12.03;8.20;;;;;;;1.31;100.00;95173.38;10352743;28;20206;-54
2022/04/05 03:13:12;;;;;;;8.47;6.77;;;;;;;1.27;100.00;95172.81;10356082;28;20216;-55
2022/04/05 03:18:13;;;;;;;8.60;6.80;;;;;;;1.28;100.00;95164.13;10372190;28;20222;-57
2022/04/05 03:23:14;;;;;;;6.97;5.87;;;;;;;1.32;100.00;95175.00;10355072;28;20188;-54
2022/04/05 03:28:15;;;;;;;9.73;8.47;;;;;;;1.37;100.00;95181.38;10373487;28;20191;-58
2022/04/05 03:33:16;;;;;;;10.20;7.00;;;;;;;1.43;100.00;95159.38;10355311;28;20200;-54
2022/04/05 03:38:17;;;;;;;9.03;7.73;;;;;;;1.44;100.00;95145.53;10354660;28;20246;-57
2022/04/05 03:43:17;;;;;;;9.57;8.47;;;;;;;1.47;100.00;95177.97;10367618;28;20197;-55
2022/04/05 03:48:22;;;;;;;5.40;4.57;;;;;;;1.50;100.00;95157.03;10350162;28;20274;-57
2022/04/05 03:53:23;;;;;;;8.03;7.00;;;;;;;1.64;100.00;95154.03;10371715;28;20254;-56
2022/04/05 03:58:24;;;;;;;8.70;6.77;;;;;;;1.58;100.00;95144.25;10354641;28;20267;-59
2022/04/05 04:03:25;;;;;;;8.70;7.80;;;;;;;1.56;100.00;95135.84;10354391;28;20201;-58
2022/04/05 04:08:27;;;;;;;8.10;6.03;;;;;;;1.59;100.00;95138.13;10354673;28;20533;-57
2022/04/05 04:13:28;;;;;;;7.43;6.20;;;;;;;1.69;100.00;95153.59;10354208;28;20197;-58
2022/04/05 04:18:31;;;;;;;7.13;6.43;;;;;;;1.65;100.00;95155.63;10354055;28;20307;-53
2022/04/05 04:23:32;;;;;;;6.17;5.20;;;;;;;1.67;100.00;95148.59;10353535;28;20192;-59
2022/04/05 04:28:34;;;;;;;7.03;6.27;;;;;;;1.63;100.00;95147.22;10353651;28;20679;-58
2022/04/05 04:33:34;;;;;;;7.27;6.57;;;;;;;1.66;100.00;95143.56;10371407;28;20298;-58
2022/04/05 04:38:35;;;;;;;5.93;4.93;;;;;;;1.70;100.00;95148.31;10371001;28;20227;-57
2022/04/05 04:43:35;;;;;;;7.43;6.63;;;;;;;1.75;100.00;95151.28;10371041;28;20259;-56
2022/04/05 04:48:36;;;;;;;7.20;6.53;;;;;;;1.87;100.00;95154.50;10370903;28;20200;-58
2022/04/05 04:53:36;;;;;;;4.77;4.27;;;;;;;1.88;100.00;95144.97;10370243;28;20254;-58
2022/04/05 04:58:37;;;;;;;6.00;5.40;;;;;;;1.98;100.00;95157.88;10370663;28;20242;-58
2022/04/05 05:03:37;;;;;;;6.40;5.80;;;;;;;2.04;100.00;95163.28;10370231;28;20346;-56
2022/04/05 05:08:38;;;;;;;7.23;6.13;;;;;;;2.06;100.00;95176.84;10370633;28;20813;-58
2022/04/05 05:13:38;;;;;;;6.53;5.83;;;;;;;2.19;100.00;95173.13;10372860;28;20200;-58
2022/04/05 05:18:38;;;;;;;4.27;3.77;;;;;;;2.27;100.00;95181.00;10386327;28;20223;-56
2022/04/05 05:23:39;;;;;;;6.50;5.90;;;;;;;2.31;100.00;95180.56;10388080;28;20221;-57
2022/04/05 05:28:39;;;;;;;6.23;5.63;;;;;;;2.37;100.00;95197.25;10386354;28;20268;-56
2022/04/05 05:33:39;;;;;;;6.67;6.03;;;;;;;2.36;100.00;95202.56;10388660;28;20277;-56
2022/04/05 05:38:40;;;;;;;7.17;6.47;;;;;;;2.36;100.00;95211.13;10382865;28;20221;-56
2022/04/05 05:43:45;;;;;;;6.80;6.20;;;;;;;2.40;100.00;95215.03;10386843;28;20262;-56
2022/04/05 05:48:45;;;;;;;5.40;4.77;;;;;;;2.46;100.00;95208.50;10410348;28;20667;-55
2022/04/05 05:53:45;;;;;;;5.37;4.80;;;;;;;2.51;100.00;95221.78;10407167;28;20327;-57
2022/04/05 05:58:50;;;;;;;5.53;4.90;;;;;;;2.57;100.00;95241.09;10410210;28;20231;-54
2022/04/05 06:03:50;;;;;;;6.03;5.47;;;;;;;2.56;100.00;95236.88;10410078;28;20208;-55
2022/04/05 06:08:51;;;;;;;6.27;5.67;;;;;;;2.57;100.00;95238.50;10410365;28;20192;-52
2022/04/05 06:13:52;;;;;;;4.97;4.47;;;;;;;2.53;100.00;95242.31;10401498;28;20622;-52
2022/04/05 06:18:52;;;;;;;5.37;4.83;;;;;;;2.59;100.00;95246.91;10406570;28;20228;-52
2022/04/05 06:23:53;;;;;;;6.50;4.70;;;;;;;2.58;100.00;95260.81;10418231;28;20694;-50
2022/04/05 06:28:55;;;;;;;5.33;4.83;;;;;;;2.68;100.00;95264.19;10416863;28;20831;-53
2022/04/05 06:33:58;;;;;;;5.47;4.97;;;;;;;2.79;100.00;95261.41;10414784;28;20212;-50
2022/04/05 06:38:58;;;;;;;4.63;4.23;;;;;;;2.88;100.00;95266.66;10415488;28;20231;-50
2022/04/05 06:43:59;;;;;;;4.40;4.00;;;;;;;2.95;100.00;95273.69;10416244;28;20577;-50
2022/04/05 06:48:59;;;;;;;4.80;4.30;;;;;;;3.14;100.00;95272.78;10416192;28;20670;-50
2022/04/05 06:53:59;;;;;;;4.03;3.57;;;;;;;3.14;100.00;95292.63;10373297;28;20743;-50
2022/04/05 06:59:00;;;;;;;3.73;3.43;;;;;;;3.17;100.00;95282.81;10373183;28;20223;-49
2022/04/05 07:04:01;;;;;;;4.03;3.70;;;;;;;3.25;100.00;95289.84;10372753;28;20235;-53
2022/04/05 07:09:01;;;;;;;4.23;3.83;;;;;;;3.44;100.00;95293.28;10373109;28;20177;-51
2022/04/05 07:14:01;;;;;;;3.97;3.63;;;;;;;3.52;100.00;95289.00;10371585;28;20296;-50
2022/04/05 07:19:02;;;;;;;4.10;3.70;;;;;;;3.99;100.00;95292.28;10372626;28;20224;-57
2022/04/05 07:24:02;;;;;;;4.13;3.73;;;;;;;3.98;100.00;95311.38;10370347;28;20225;-52
2022/04/05 07:29:02;;;;;;;3.67;3.37;;;;;;;3.92;100.00;95317.94;10371265;28;20209;-54
2022/04/05 07:34:03;;;;;;;3.70;3.03;;;;;;;4.18;100.00;95327.53;10371746;28;20245;-52
2022/04/05 07:39:04;;;;;;;3.37;3.07;;;;;;;4.05;100.00;95317.59;10392320;28;20624;-54
2022/04/05 07:44:05;;;;;;;2.97;2.77;;;;;;;3.99;100.00;95315.59;10381374;28;20224;-51
2022/04/05 07:49:05;;;;;;;6.00;3.90;;;;;;;4.11;100.00;95335.94;10401702;28;20189;-55
2022/04/05 07:54:05;;;;;;;3.13;2.93;;;;;;;4.05;100.00;95331.34;10412009;28;20232;-50
2022/04/05 07:59:06;;;;;;;2.70;2.50;;;;;;;4.09;100.00;95331.88;10414390;22;20259;-52
2022/04/05 08:04:07;;;;;;;3.13;2.77;;;;;;;4.09;100.00;95334.47;10378705;28;20201;-54
2022/04/05 08:09:07;;;;;;;3.17;2.97;;;;;;;4.07;100.00;95338.97;10349836;28;20232;-53
2022/04/05 08:14:07;;;;;;;3.27;2.77;;;;;;;4.32;100.00;95342.56;10342316;28;20625;-54
2022/04/05 08:19:09;;;;;;;3.17;2.87;;;;;;;4.27;100.00;95353.41;10342558;28;20649;-54
2022/04/05 08:24:09;;;;;;;2.60;2.33;;;;;;;4.56;100.00;95354.06;10323459;28;20194;-55
2022/04/05 08:29:09;;;;;;;2.80;2.50;;;;;;;4.78;100.00;95350.13;10324295;28;20214;-54
2022/04/05 08:34:10;;;;;;;3.60;2.40;;;;;;;4.96;100.00;95355.22;10324471;28;20194;-57
2022/04/05 08:39:10;;;;;;;3.00;2.80;;;;;;;4.99;100.00;95354.94;10345207;28;20213;-56
2022/04/05 08:44:12;;;;;;;2.77;2.43;;;;;;;5.46;100.00;95364.84;10360685;28;20199;-54
2022/04/05 08:49:13;;;;;;;3.93;1.97;;;;;;;5.87;100.00;95369.31;10323965;28;20715;-56
2022/04/05 08:54:13;;;;;;;1.67;1.57;;;;;;;6.75;100.00;95365.25;10351456;28;20200;-57
2022/04/05 08:59:14;;;;;;;1.60;1.50;;;;;;;6.24;100.00;95376.66;10335266;28;20230;-54
2022/04/05 09:04:14;;;;;;;2.23;2.00;;;;;;;6.48;100.00;95379.44;10325643;28;20204;-55
2022/04/05 09:09:21;;;;;;;4.27;2.90;;;;;;;6.56;100.00;95384.63;10318059;28;20217;-55
2022/04/05 09:14:26;;;;;;;2.43;2.10;;;;;;;6.50;100.00;95390.50;10340584;28;20197;-55
2022/04/05 09:19:35;;;;;;;2.37;2.10;;;;;;;6.90;100.00;95389.59;10364948;28;20257;-53
2022/04/05 09:24:38;;;;;;;4.30;2.97;;;;;;;6.68;100.00;95387.72;10328228;28;20707;-53
2022/04/05 09:29:43;;;;;;;4.17;2.90;;;;;;;6.92;100.00;95398.09;10324008;28;20205;-53
2022/04/05 09:34:49;;;;;;;2.73;2.00;;;;;;;7.45;100.00;95387.97;10323209;28;20671;-56
2022/04/05 09:39:49;;;;;;;2.50;2.30;;;;;;;7.66;100.00;95378.75;10324090;28;20288;-59
2022/04/05 09:44:49;;;;;;;3.07;2.40;;;;;;;7.17;100.00;95377.19;10306465;28;20746;-54
2022/04/05 09:49:50;;;;;;;8.40;5.00;;;;;;;6.49;100.00;95388.88;10325818;28;20209;-55
2022/04/05 09:54:51;;;;;;;2.63;2.20;;;;;;;5.76;100.00;95393.81;10331068;28;20194;-55
2022/04/05 09:59:51;;;;;;;2.00;1.90;;;;;;;5.76;100.00;95400.78;10331181;28;20238;-56
2022/04/05 10:05:00;;;;;;;2.60;2.40;;;;;;;5.84;100.00;95404.22;10331272;28;20620;-57
2022/04/05 10:10:03;;;;;;;1.90;1.80;;;;;;;5.91;100.00;95399.19;10345353;28;20217;-57
2022/04/05 10:15:04;;;;;;;1.90;1.70;;;;;;;6.73;100.00;95401.84;10372455;28;20207;-56
2022/04/05 10:20:05;;;;;;;1.97;1.87;;;;;;;5.72;100.00;95397.72;10371435;28;20265;-56
2022/04/05 10:25:06;;;;;;;2.07;1.97;;;;;;;6.27;100.00;95413.75;10346903;28;20231;-56
2022/04/05 10:30:15;;;;;;;1.43;1.33;;;;;;;7.43;100.00;95387.34;10329641;28;20582;-59
2022/04/05 10:35:22;;;;;;;1.60;1.50;;;;;;;7.31;100.00;95394.69;10329116;28;20190;-58
2022/04/05 10:40:22;;;;;;;1.90;1.53;;;;;;;7.51;100.00;95376.06;10329805;28;20245;-56
2022/04/05 10:45:28;;;;;;;1.67;1.33;;;;;;;7.66;100.00;95374.34;10330591;28;20208;-57
2022/04/05 10:50:29;;;;;;;2.97;1.20;;;;;;;7.92;97.61;95378.44;10329825;28;20213;-59
2022/04/05 10:55:29;;;;;;;1.57;1.23;;;;;;;8.08;95.88;95368.88;10328842;28;20190;-60
2022/04/05 11:00:29;;;;;;;1.20;1.10;;;;;;;6.82;98.51;95389.63;10328163;28;20802;-59
2022/04/05 11:05:37;;;;;;;1.20;1.10;;;;;;;7.44;100.00;95382.91;10329234;28;20244;-59
2022/04/05 11:10:37;;;;;;;1.50;1.40;;;;;;;7.33;100.00;95410.16;10328982;28;20234;-61
2022/04/05 11:15:45;;;;;;;0.90;0.90;;;;;;;7.17;100.00;95405.81;10329645;28;20201;-61
2022/04/05 11:20:46;;;;;;;1.67;1.40;;;;;;;6.40;100.00;95420.09;10328396;28;20382;-60
2022/04/05 11:25:47;;;;;;;9.10;7.70;;;;;;;6.15;100.00;95421.03;10328670;28;20253;-60
2022/04/05 11:30:58;;;;;;;1.43;1.10;;;;;;;6.30;100.00;95429.03;10327060;28;20222;-61
2022/04/05 11:36:01;;;;;;;1.00;1.00;;;;;;;6.18;100.00;95423.31;10327844;28;20289;-58
2022/04/05 11:41:09;;;;;;;1.17;1.17;;;;;;;5.86;100.00;95420.47;10327980;28;20233;-59
2022/04/05 11:46:18;;;;;;;1.50;1.40;;;;;;;5.85;100.00;95413.66;10328211;28;20216;-61
2022/04/05 11:51:21;;;;;;;1.70;1.60;;;;;;;5.40;100.00;95411.41;10326343;28;20297;-60
2022/04/05 11:56:24;;;;;;;2.67;1.83;;;;;;;5.47;100.00;95417.63;10327166;28;20269;-60
2022/04/05 12:01:28;;;;;;;2.10;2.00;;;;;;;5.38;100.00;95410.75;10326220;28;20241;-60
2022/04/05 12:06:32;;;;;;;1.90;1.80;;;;;;;5.49;100.00;95411.28;10326729;28;20285;-61
2022/04/05 12:11:34;;;;;;;1.50;1.50;;;;;;;5.71;100.00;95414.25;10323485;28;20794;-60
2022/04/05 12:16:56;;;;;;;1.57;1.47;;;;;;;6.09;100.00;95413.88;10326126;28;20664;-61
2022/04/05 12:22:11;;;;;;;1.40;1.40;;;;;;;6.26;100.00;95407.72;10325139;28;20817;-61
2022/04/05 12:27:12;;;;;;;1.40;1.30;;;;;;;6.11;100.00;95409.34;10323889;28;20198;-59
2022/04/05 12:32:13;;;;;;;1.70;1.60;;;;;;;5.96;100.00;95407.34;10325368;28;20217;-55
2022/04/05 12:37:14;;;;;;;1.80;1.70;;;;;;;5.75;100.00;95396.59;10327406;28;20194;-58
2022/04/05 12:42:15;;;;;;;2.27;2.10;;;;;;;6.02;100.00;95391.13;10340746;28;20293;-60
2022/04/05 12:47:19;;;;;;;2.30;2.10;;;;;;;6.11;100.00;95394.56;10343463;28;20185;-58
2022/04/05 12:52:25;;;;;;;1.70;1.60;;;;;;;5.84;100.00;95403.44;10343617;28;20214;-60
2022/04/05 12:57:34;;;;;;;2.17;2.07;;;;;;;5.67;100.00;95398.19;10348643;28;20191;-62
2022/04/05 13:02:44;;;;;;;2.10;2.00;;;;;;;5.74;100.00;95395.75;10347866;28;20233;-56
2022/04/05 13:07:54;;;;;;;2.47;2.27;;;;;;;5.67;100.00;95403.38;10323620;28;20251;-57
2022/04/05 13:12:54;;;;;;;2.30;2.10;;;;;;;5.69;100.00;95400.63;10325097;28;20206;-58
2022/04/05 13:18:05;;;;;;;2.50;2.30;;;;;;;5.54;100.00;95384.81;10324971;28;20208;-57
2022/04/05 13:23:06;;;;;;;2.17;1.97;;;;;;;5.63;100.00;95394.25;10325204;28;20229;-55
2022/04/05 13:28:08;;;;;;;2.77;2.57;;;;;;;5.47;100.00;95387.25;10330561;28;20189;-55
2022/04/05 13:33:09;;;;;;;3.13;2.93;;;;;;;5.50;100.00;95394.72;10332635;28;20695;-56
2022/04/05 13:38:09;;;;;;;2.97;2.77;;;;;;;5.66;100.00;95386.16;10330408;28;20208;-58
2022/04/05 13:43:10;;;;;;;3.00;2.80;;;;;;;5.68;100.00;95386.81;10331897;28;20206;-57
2022/04/05 13:48:10;;;;;;;3.20;2.93;;;;;;;5.49;100.00;95390.50;10331733;28;20547;-58
2022/04/05 13:53:10;;;;;;;3.00;2.57;;;;;;;5.62;100.00;95397.84;10331392;28;20633;-58
2022/04/05 13:58:11;;;;;;;3.37;3.07;;;;;;;5.43;100.00;95401.50;10332032;28;20740;-59
2022/04/05 14:03:11;;;;;;;3.97;3.60;;;;;;;5.46;100.00;95396.00;10379750;22;20797;-56
2022/04/05 14:08:12;;;;;;;4.30;3.90;;;;;;;5.50;100.00;95388.72;10372060;28;20216;-56
2022/04/05 14:13:12;;;;;;;4.10;3.70;;;;;;;5.50;100.00;95381.75;10371049;28;20213;-52
2022/04/05 14:18:12;;;;;;;3.90;3.60;;;;;;;5.62;100.00;95377.06;10371683;28;20198;-53
2022/04/05 14:23:13;;;;;;;5.20;4.67;;;;;;;5.65;100.00;95366.38;10370948;28;20224;-55
2022/04/05 14:28:13;;;;;;;4.70;4.30;;;;;;;5.85;100.00;95353.06;10371596;28;20232;-59
2022/04/05 14:33:14;;;;;;;3.77;3.40;;;;;;;5.87;100.00;95335.53;10370554;28;20296;-53
2022/04/05 14:38:14;;;;;;;4.27;3.87;;;;;;;5.96;100.00;95355.34;10369345;28;20193;-56
2022/04/05 14:43:15;;;;;;;4.70;4.27;;;;;;;6.05;100.00;95338.03;10369879;28;20270;-53
2022/04/05 14:48:15;;;;;;;3.90;3.57;;;;;;;6.04;100.00;95352.78;10369731;28;20638;-52
2022/04/05 14:53:16;;;;;;;4.97;4.17;;;;;;;5.95;100.00;95343.31;10370684;28;20581;-53
2022/04/05 14:58:16;;;;;;;4.17;3.77;;;;;;;6.21;100.00;95332.00;10369765;28;20193;-54
2022/04/05 15:03:17;;;;;;;4.00;3.67;;;;;;;6.21;100.00;95337.19;10367387;28;20233;-52
2022/04/05 15:08:18;;;;;;;5.67;4.00;;;;;;;6.15;100.00;95343.84;10350478;28;20708;-52
2022/04/05 15:13:18;;;;;;;5.47;4.97;;;;;;;5.95;100.00;95335.53;10348144;28;20217;-56
2022/04/05 15:18:19;;;;;;;18.50;14.73;;;;;;;5.89;100.00;95339.56;10350144;28;20309;-51
2022/04/05 15:23:21;;;;;;;7.90;7.20;;;;;;;5.93;100.00;95336.69;10347012;28;20442;-52
2022/04/05 15:28:21;;;;;;;5.60;4.13;;;;;;;6.08;100.00;95342.91;10346711;28;20194;-54
2022/04/05 15:33:22;;;;;;;6.33;5.07;;;;;;;5.97;100.00;95336.22;10327291;28;20232;-52
2022/04/05 15:38:22;;;;;;;6.17;5.57;;;;;;;6.02;100.00;95343.53;10327953;28;20186;-55
2022/04/05 15:43:22;;;;;;;7.23;5.40;;;;;;;6.29;100.00;95334.56;10325375;28;20837;-52
2022/04/05 15:48:23;;;;;;;5.03;4.63;;;;;;;6.29;100.00;95344.97;10348795;28;20288;-54
2022/04/05 15:53:23;;;;;;;7.43;5.13;;;;;;;6.44;100.00;95332.13;10361212;28;20216;-54
2022/04/05 15:58:24;;;;;;;6.87;5.57;;;;;;;6.46;100.00;95344.97;10351041;28;20200;-58
2022/04/05 16:03:24;;;;;;;5.07;4.57;;;;;;;6.54;100.00;95344.94;10350087;28;20228;-54
2022/04/05 16:08:25;;;;;;;3.80;3.50;;;;;;;6.70;100.00;95331.09;10346900;28;20212;-55
2022/04/05 16:13:25;;;;;;;3.10;2.80;;;;;;;6.53;100.00;95343.34;10331101;28;20236;-60
2022/04/05 16:18:25;;;;;;;5.03;4.50;;;;;;;6.62;100.00;95334.53;10346356;28;20196;-55
2022/04/05 16:23:26;;;;;;;4.63;4.23;;;;;;;6.69;100.00;95327.69;10354872;28;20584;-56
2022/04/05 16:28:26;;;;;;;4.40;3.97;;;;;;;6.66;100.00;95330.63;10369019;28;20727;-58
2022/04/05 16:33:26;;;;;;;5.50;4.67;;;;;;;6.66;100.00;95328.03;10370250;28;20213;-58
2022/04/05 16:38:27;;;;;;;5.70;4.53;;;;;;;6.66;100.00;95330.63;10338628;28;20194;-59
2022/04/05 16:43:27;;;;;;;5.73;5.13;;;;;;;6.63;100.00;95330.97;10370475;28;20210;-60
2022/04/05 16:48:28;;;;;;;9.60;6.03;;;;;;;6.62;100.00;95329.34;10365689;28;20297;-58
2022/04/05 16:53:28;;;;;;;4.53;4.13;;;;;;;6.63;100.00;95337.94;10361686;28;20229;-59
2022/04/05 16:58:28;;;;;;;4.30;3.90;;;;;;;6.64;100.00;95342.97;10369148;28;20197;-58
2022/04/05 17:03:29;;;;;;;5.30;4.70;;;;;;;6.66;100.00;95351.47;10369078;28;20787;-56
2022/04/05 17:08:29;;;;;;;7.20;5.27;;;;;;;6.63;100.00;95356.16;10369021;28;20755;-58
2022/04/05 17:13:29;;;;;;;4.13;3.80;;;;;;;6.61;100.00;95343.31;10369219;28;20635;-60
2022/04/05 17:18:30;;;;;;;4.20;3.80;;;;;;;6.58;100.00;95328.88;10367336;28;20224;-58
2022/04/05 17:23:30;;;;;;;5.60;4.87;;;;;;;6.45;100.00;95343.34;10364556;28;20213;-60
2022/04/05 17:28:31;;;;;;;6.27;5.17;;;;;;;6.40;100.00;95351.63;10366089;28;20742;-61
2022/04/05 17:33:31;;;;;;;9.07;5.27;;;;;;;6.30;100.00;95364.00;10364827;28;20220;-59
2022/04/05 17:38:31;;;;;;;7.07;5.57;;;;;;;6.15;100.00;95379.44;10365291;28;20229;-56
2022/04/05 17:43:33;;;;;;;7.57;6.40;;;;;;;6.05;100.00;95375.22;10367424;28;20216;-54
2022/04/05 17:48:34;;;;;;;6.70;6.00;;;;;;;6.02;100.00;95378.13;10369183;28;20659;-56
2022/04/05 17:53:34;;;;;;;7.17;5.43;;;;;;;6.09;100.00;95385.28;10366024;28;20205;-56
2022/04/05 17:58:35;;;;;;;8.17;5.47;;;;;;;6.07;100.00;95388.84;10368484;28;20216;-62
2022/04/05 18:03:37;;;;;;;6.80;6.10;;;;;;;6.03;100.00;95410.97;10367945;28;20272;-60
2022/04/05 18:08:38;;;;;;;6.83;5.93;;;;;;;5.94;100.00;95409.31;10368799;28;20195;-62
2022/04/05 18:13:38;;;;;;;4.27;3.87;;;;;;;5.96;100.00;95412.53;10373874;28;20216;-55
2022/04/05 18:18:39;;;;;;;7.17;6.47;;;;;;;5.96;100.00;95417.75;10375679;28;20630;-59
2022/04/05 18:23:41;;;;;;;7.63;6.10;;;;;;;5.93;100.00;95412.88;10375514;28;20266;-59
2022/04/05 18:28:42;;;;;;;6.53;5.90;;;;;;;5.92;100.00;95408.63;10375052;28;20560;-60
2022/04/05 18:33:48;;;;;;;6.50;5.60;;;;;;;5.95;100.00;95410.91;10358604;28;20220;-62
2022/04/05 18:38:52;;;;;;;7.73;6.87;;;;;;;5.99;100.00;95406.25;10375092;28;20220;-59
2022/04/05 18:43:52;;;;;;;7.47;6.73;;;;;;;5.93;100.00;95410.25;10374823;28;20216;-59
2022/04/05 18:48:53;;;;;;;7.03;6.33;;;;;;;5.93;100.00;95422.47;10374817;28;20272;-62
2022/04/05 18:53:53;;;;;;;6.37;5.73;;;;;;;5.93;100.00;95422.47;10374391;28;20217;-59
2022/04/05 18:58:55;;;;;;;9.73;7.20;;;;;;;5.88;100.00;95436.72;10359636;28;20213;-58
2022/04/05 19:03:55;;;;;;;7.80;7.10;;;;;;;5.96;100.00;95445.53;10333295;28;20238;-54
2022/04/05 19:08:56;;;;;;;8.03;6.90;;;;;;;5.93;100.00;95438.84;10333199;28;20209;-59
2022/04/05 19:13:56;;;;;;;7.87;7.07;;;;;;;5.89;100.00;95440.94;10349539;28;20209;-60
2022/04/05 19:18:56;;;;;;;7.70;7.00;;;;;;;5.90;100.00;95439.97;10341699;28;20588;-60
2022/04/05 19:23:58;;;;;;;8.63;7.83;;;;;;;5.99;100.00;95447.84;10346698;28;20574;-60
2022/04/05 19:28:59;;;;;;;6.67;6.07;;;;;;;6.05;100.00;95435.00;10351237;28;20208;-56
2022/04/05 19:33:59;;;;;;;7.43;6.70;;;;;;;6.10;100.00;95436.31;10363137;28;20802;-61
2022/04/05 19:39:00;;;;;;;7.37;6.60;;;;;;;6.12;100.00;95434.38;10373065;28;20883;-59
2022/04/05 19:44:00;;;;;;;7.40;6.43;;;;;;;6.13;100.00;95439.41;10372830;28;20232;-55
2022/04/05 19:49:01;;;;;;;6.03;5.37;;;;;;;6.22;100.00;95438.44;10372664;28;20200;-59
2022/04/05 19:54:01;;;;;;;6.17;5.47;;;;;;;6.29;100.00;95438.59;10372231;28;20213;-61
2022/04/05 19:59:02;;;;;;;7.93;7.17;;;;;;;6.29;100.00;95425.59;10371938;28;20228;-58
2022/04/05 20:04:02;;;;;;;8.40;7.17;;;;;;;6.25;100.00;95421.72;10402775;22;20240;-55
2022/04/05 20:09:03;;;;;;;7.23;5.90;;;;;;;6.38;100.00;95437.63;10412723;28;20185;-54
2022/04/05 20:14:04;;;;;;;7.13;6.37;;;;;;;6.43;100.00;95426.75;10412081;28;20220;-54
2022/04/05 20:19:04;;;;;;;7.67;6.03;;;;;;;6.45;100.00;95430.00;10411860;28;20261;-55
2022/04/05 20:24:05;;;;;;;8.37;6.47;;;;;;;6.39;100.00;95428.84;10411919;28;20261;-57
2022/04/05 20:29:05;;;;;;;7.83;6.53;;;;;;;6.42;100.00;95409.53;10411906;28;20663;-57
2022/04/05 20:34:06;;;;;;;7.60;6.67;;;;;;;6.40;100.00;95430.50;10411195;28;20219;-58
2022/04/05 20:39:06;;;;;;;5.47;4.73;;;;;;;6.46;100.00;95417.81;10411524;28;20718;-54
2022/04/05 20:44:07;;;;;;;6.87;6.17;;;;;;;6.53;100.00;95413.59;10411673;28;20220;-55
2022/04/05 20:49:08;;;;;;;7.37;6.67;;;;;;;6.40;100.00;95408.84;10411608;28;20551;-55
2022/04/05 20:54:08;;;;;;;7.60;5.97;;;;;;;6.55;100.00;95396.81;10411224;28;20209;-54
2022/04/05 20:59:09;;;;;;;7.53;6.77;;;;;;;6.48;100.00;95406.28;10411438;28;20251;-57
2022/04/05 21:04:09;;;;;;;7.90;6.20;;;;;;;6.46;100.00;95405.59;10410745;28;20228;-55
2022/04/05 21:09:09;;;;;;;7.30;5.43;;;;;;;6.53;100.00;95405.78;10411302;28;20195;-55
2022/04/05 21:14:10;;;;;;;7.77;6.43;;;;;;;6.47;100.00;95409.84;10410858;28;20253;-54
2022/04/05 21:19:10;;;;;;;11.73;6.27;;;;;;;6.63;100.00;95393.41;10410706;28;20749;-57
2022/04/05 21:24:11;;;;;;;6.60;5.17;;;;;;;6.63;100.00;95395.19;10411117;28;20738;-56
2022/04/05 21:34:32;;;;;;;5.37;4.87;;;;;;;6.64;100.00;95384.63;10410051;28;20706;-55
2022/04/05 21:39:33;;;;;;;6.90;5.87;;;;;;;6.60;100.00;95385.94;10410778;28;20216;-55
2022/04/05 21:44:34;;;;;;;5.67;4.80;;;;;;;6.62;100.00;95378.78;10410583;28;20766;-54
2022/04/05 21:49:36;;;;;;;6.27;5.67;;;;;;;6.71;100.00;95401.22;10418831;28;20263;-56
2022/04/05 21:54:37;;;;;;;5.00;4.50;;;;;;;6.76;100.00;95388.50;10418609;28;20211;-54
2022/04/05 21:59:38;;;;;;;5.77;5.17;;;;;;;6.83;100.00;95403.44;10418353;28;20216;-56
2022/04/05 22:04:39;;;;;;;7.20;6.50;;;;;;;7.00;100.00;95393.81;10417754;28;20238;-57
2022/04/05 22:09:40;;;;;;;6.83;5.10;;;;;;;6.93;100.00;95384.06;10417600;28;20659;-58
2022/04/05 22:14:40;;;;;;;6.83;6.20;;;;;;;6.98;100.00;95399.19;10417465;28;20216;-55
2022/04/05 22:19:40;;;;;;;7.10;6.40;;;;;;;7.02;100.00;95410.09;10417482;28;20235;-59
2022/04/05 22:24:41;;;;;;;7.13;6.43;;;;;;;7.01;100.00;95392.84;10417197;28;20417;-54
2022/04/05 22:29:42;;;;;;;7.93;6.20;;;;;;;7.07;100.00;95406.00;10417133;28;20669;-55
2022/04/05 22:34:42;;;;;;;7.57;6.70;;;;;;;7.11;100.00;95399.50;10416420;28;20559;-55
2022/04/05 22:39:42;;;;;;;7.07;6.33;;;;;;;7.17;100.00;95400.63;10416704;28;20591;-54
2022/04/05 22:44:43;;;;;;;8.10;6.17;;;;;;;7.18;100.00;95396.22;10416325;28;20270;-55
2022/04/05 22:49:43;;;;;;;7.63;6.83;;;;;;;7.14;100.00;95390.53;10416420;28;20196;-55
2022/04/05 22:54:43;;;;;;;8.10;6.70;;;;;;;7.26;100.00;95396.19;10415903;28;20212;-55
2022/04/05 22:59:44;;;;;;;8.77;6.23;;;;;;;7.26;100.00;95404.81;10415604;28;20266;-56
2022/04/05 23:04:44;;;;;;;8.07;7.13;;;;;;;7.26;100.00;95399.59;10415458;28;20232;-54
2022/04/05 23:09:48;;;;;;;8.70;7.43;;;;;;;7.24;100.00;95396.38;10415603;28;20223;-56
2022/04/05 23:14:49;;;;;;;8.73;7.83;;;;;;;7.30;100.00;95398.31;10415470;28;20208;-59
2022/04/05 23:19:50;;;;;;;9.33;7.63;;;;;;;7.30;100.00;95400.91;10414701;28;20675;-59
2022/04/05 23:24:50;;;;;;;8.63;7.17;;;;;;;7.32;100.00;95409.34;10415230;28;20314;-57